sensor_id;sensor_type;location;lat;lon;timestamp;P1;durP1;ratioP1;P2;durP2;ratioP2
56746;SDS011;42623;49.978;9.966;2022-07-06T00:00:09;11.23;;;3.23;;
56746;SDS011;42623;49.978;9.966;2022-07-06T00:00:19;13.55;;;3.58;;
56746;SDS011;42623;49.978;9.966;2022-07-06T00:00:30;8.90;;;3.27;;
56746;SDS011;42623;49.978;9.966;2022-07-06T00:00:40;8.80;;;3.60;;
56746;SDS011;42623;49.978;9.966;2022-07-06T00:00:50;6.05;;;3.33;;
56746;SDS011;42623;49.978;9.966;2022-07-06T00:01:00;6.00;;;3.23;;
56746;SDS011;42623;49.978;9.966;2022-07-06T00:01:10;5.83;;;3.10;;
56746;SDS011;42623;49.978;9.966;2022-07-06T00:01:21;5.80;;;3.00;;
56746;SDS011;42623;49.978;9.966;2022-07-06T00:01:31;5.90;;;3.00;;
56746;SDS011;42623;49.978;9.966;2022-07-06T00:01:41;5.73;;;2.90;;
56746;SDS011;42623;49.978;9.966;2022-07-06T00:01:51;6.00;;;3.00;;
56746;SDS011;42623;49.978;9.966;2022-07-06T00:02:02;6.07;;;2.97;;
56746;SDS011;42623;49.978;9.966;2022-07-06T00:02:12;6.00;;;2.93;;
56746;SDS011;42623;49.978;9.966;2022-07-06T00:02:23;5.45;;;2.92;;
56746;SDS011;42623;49.978;9.966;2022-07-06T00:02:33;5.97;;;3.00;;
56746;SDS011;42623;49.978;9.966;2022-07-06T00:02:43;6.20;;;2.93;;
56746;SDS011;42623;49.978;9.966;2022-07-06T00:02:53;6.40;;;2.73;;
56746;SDS011;42623;49.978;9.966;2022-07-06T00:03:03;5.70;;;2.63;;
56746;SDS011;42623;49.978;9.966;2022-07-06T00:03:13;5.60;;;2.60;;
56746;SDS011;42623;49.978;9.966;2022-07-06T00:03:24;5.57;;;2.95;;
56746;SDS011;42623;49.978;9.966;2022-07-06T00:03:34;5.83;;;3.03;;
56746;SDS011;42623;49.978;9.966;2022-07-06T00:03:44;5.70;;;3.03;;
56746;SDS011;42623;49.978;9.966;2022-07-06T00:03:54;5.10;;;2.70;;
56746;SDS011;42623;49.978;9.966;2022-07-06T00:04:04;5.53;;;2.60;;
56746;SDS011;42623;49.978;9.966;2022-07-06T00:04:15;5.85;;;2.58;;
56746;SDS011;42623;49.978;9.966;2022-07-06T00:04:25;6.33;;;2.80;;
56746;SDS011;42623;49.978;9.966;2022-07-06T00:04:35;6.30;;;2.90;;
56746;SDS011;42623;49.978;9.966;2022-07-06T00:04:45;5.93;;;2.83;;
56746;SDS011;42623;49.978;9.966;2022-07-06T00:04:55;5.90;;;2.78;;
56746;SDS011;42623;49.978;9.966;2022-07-06T00:05:07;5.75;;;3.25;;
56746;SDS011;42623;49.978;9.966;2022-07-06T00:05:17;6.07;;;3.37;;
56746;SDS011;42623;49.978;9.966;2022-07-06T00:05:28;6.50;;;3.63;;
56746;SDS011;42623;49.978;9.966;2022-07-06T00:05:38;6.27;;;3.40;;
56746;SDS011;42623;49.978;9.966;2022-07-06T00:05:48;6.10;;;3.40;;
56746;SDS011;42623;49.978;9.966;2022-07-06T00:05:58;5.45;;;3.15;;
56746;SDS011;42623;49.978;9.966;2022-07-06T00:06:08;5.43;;;2.93;;
56746;SDS011;42623;49.978;9.966;2022-07-06T00:06:18;6.17;;;3.20;;
56746;SDS011;42623;49.978;9.966;2022-07-06T00:06:29;6.57;;;3.27;;
56746;SDS011;42623;49.978;9.966;2022-07-06T00:06:39;6.67;;;3.50;;
56746;SDS011;42623;49.978;9.966;2022-07-06T00:06:49;5.70;;;2.97;;
56746;SDS011;42623;49.978;9.966;2022-07-06T00:06:59;5.27;;;2.80;;
56746;SDS011;42623;49.978;9.966;2022-07-06T00:07:09;5.17;;;2.70;;
56746;SDS011;42623;49.978;9.966;2022-07-06T00:07:20;5.30;;;2.80;;
56746;SDS011;42623;49.978;9.966;2022-07-06T00:07:31;6.45;;;3.13;;
56746;SDS011;42623;49.978;9.966;2022-07-06T00:07:41;6.70;;;3.20;;
56746;SDS011;42623;49.978;9.966;2022-07-06T00:07:52;6.60;;;3.10;;
56746;SDS011;42623;49.978;9.966;2022-07-06T00:08:02;9.90;;;5.33;;
56746;SDS011;42623;49.978;9.966;2022-07-06T00:08:12;94.37;;;58.93;;
56746;SDS011;42623;49.978;9.966;2022-07-06T00:08:22;132.53;;;82.80;;
56746;SDS011;42623;49.978;9.966;2022-07-06T00:08:32;130.27;;;81.13;;
56746;SDS011;42623;49.978;9.966;2022-07-06T00:08:43;69.22;;;42.72;;
56746;SDS011;42623;49.978;9.966;2022-07-06T00:08:53;53.60;;;33.17;;
56746;SDS011;42623;49.978;9.966;2022-07-06T00:09:03;56.07;;;35.37;;
56746;SDS011;42623;49.978;9.966;2022-07-06T00:09:14;33.10;;;21.65;;
56746;SDS011;42623;49.978;9.966;2022-07-06T00:09:24;17.07;;;11.57;;
56746;SDS011;42623;49.978;9.966;2022-07-06T00:09:34;13.53;;;8.50;;
56746;SDS011;42623;49.978;9.966;2022-07-06T00:09:44;8.25;;;4.18;;
56746;SDS011;42623;49.978;9.966;2022-07-06T00:09:55;9.57;;;4.70;;
56746;SDS011;42623;49.978;9.966;2022-07-06T00:10:05;10.93;;;5.07;;
56746;SDS011;42623;49.978;9.966;2022-07-06T00:10:15;11.00;;;5.07;;
56746;SDS011;42623;49.978;9.966;2022-07-06T00:10:25;9.53;;;4.77;;
56746;SDS011;42623;49.978;9.966;2022-07-06T00:10:36;7.50;;;4.30;;
56746;SDS011;42623;49.978;9.966;2022-07-06T00:10:46;6.90;;;3.67;;
56746;SDS011;42623;49.978;9.966;2022-07-06T00:10:56;6.57;;;3.20;;
56746;SDS011;42623;49.978;9.966;2022-07-06T00:11:06;6.17;;;2.97;;
56746;SDS011;42623;49.978;9.966;2022-07-06T00:11:16;6.00;;;3.15;;
56746;SDS011;42623;49.978;9.966;2022-07-06T00:11:26;6.30;;;3.40;;
56746;SDS011;42623;49.978;9.966;2022-07-06T00:11:36;6.93;;;3.50;;
56746;SDS011;42623;49.978;9.966;2022-07-06T00:11:47;6.60;;;3.27;;
56746;SDS011;42623;49.978;9.966;2022-07-06T00:11:57;6.33;;;3.13;;
56746;SDS011;42623;49.978;9.966;2022-07-06T00:12:07;22.20;;;14.95;;
56746;SDS011;42623;49.978;9.966;2022-07-06T00:12:17;173.00;;;117.53;;
56746;SDS011;42623;49.978;9.966;2022-07-06T00:12:27;177.67;;;120.20;;
56746;SDS011;42623;49.978;9.966;2022-07-06T00:12:38;156.33;;;104.87;;
56746;SDS011;42623;49.978;9.966;2022-07-06T00:12:48;13.10;;;7.63;;
56746;SDS011;42623;49.978;9.966;2022-07-06T00:12:58;11.05;;;6.43;;
56746;SDS011;42623;49.978;9.966;2022-07-06T00:13:08;11.70;;;6.00;;
56746;SDS011;42623;49.978;9.966;2022-07-06T00:13:18;12.03;;;5.87;;
56746;SDS011;42623;49.978;9.966;2022-07-06T00:13:28;13.37;;;6.40;;
56746;SDS011;42623;49.978;9.966;2022-07-06T00:13:39;13.68;;;7.00;;
56746;SDS011;42623;49.978;9.966;2022-07-06T00:13:49;13.67;;;6.77;;
56746;SDS011;42623;49.978;9.966;2022-07-06T00:14:00;10.77;;;5.17;;
56746;SDS011;42623;49.978;9.966;2022-07-06T00:14:10;10.90;;;4.47;;
56746;SDS011;42623;49.978;9.966;2022-07-06T00:14:20;10.33;;;3.70;;
56746;SDS011;42623;49.978;9.966;2022-07-06T00:14:30;9.70;;;3.73;;
56746;SDS011;42623;49.978;9.966;2022-07-06T00:14:41;7.28;;;3.42;;
56746;SDS011;42623;49.978;9.966;2022-07-06T00:14:51;6.33;;;3.13;;
56746;SDS011;42623;49.978;9.966;2022-07-06T00:15:01;6.10;;;3.07;;
56746;SDS011;42623;49.978;9.966;2022-07-06T00:15:11;6.13;;;3.13;;
56746;SDS011;42623;49.978;9.966;2022-07-06T00:15:21;5.88;;;3.30;;
56746;SDS011;42623;49.978;9.966;2022-07-06T00:15:31;6.60;;;3.37;;
56746;SDS011;42623;49.978;9.966;2022-07-06T00:15:42;7.73;;;3.50;;
56746;SDS011;42623;49.978;9.966;2022-07-06T00:15:52;8.60;;;3.77;;
56746;SDS011;42623;49.978;9.966;2022-07-06T00:16:02;8.63;;;3.70;;
56746;SDS011;42623;49.978;9.966;2022-07-06T00:16:13;7.38;;;3.40;;
56746;SDS011;42623;49.978;9.966;2022-07-06T00:16:23;6.80;;;3.20;;
56746;SDS011;42623;49.978;9.966;2022-07-06T00:16:33;7.13;;;3.25;;
56746;SDS011;42623;49.978;9.966;2022-07-06T00:16:43;7.27;;;3.50;;
56746;SDS011;42623;49.978;9.966;2022-07-06T00:16:54;7.17;;;3.40;;
56746;SDS011;42623;49.978;9.966;2022-07-06T00:17:04;6.73;;;3.57;;
56746;SDS011;42623;49.978;9.966;2022-07-06T00:17:14;6.87;;;3.57;;
56746;SDS011;42623;49.978;9.966;2022-07-06T00:17:24;6.60;;;3.60;;
56746;SDS011;42623;49.978;9.966;2022-07-06T00:17:34;6.40;;;3.50;;
56746;SDS011;42623;49.978;9.966;2022-07-06T00:17:45;7.40;;;3.60;;
56746;SDS011;42623;49.978;9.966;2022-07-06T00:17:55;7.80;;;3.53;;
56746;SDS011;42623;49.978;9.966;2022-07-06T00:18:05;7.18;;;3.38;;
56746;SDS011;42623;49.978;9.966;2022-07-06T00:18:15;5.63;;;2.87;;
56746;SDS011;42623;49.978;9.966;2022-07-06T00:18:25;5.00;;;2.83;;
56746;SDS011;42623;49.978;9.966;2022-07-06T00:18:35;5.90;;;3.10;;
56746;SDS011;42623;49.978;9.966;2022-07-06T00:18:46;6.50;;;3.20;;
56746;SDS011;42623;49.978;9.966;2022-07-06T00:18:56;6.70;;;3.28;;
56746;SDS011;42623;49.978;9.966;2022-07-06T00:19:06;7.10;;;3.57;;
56746;SDS011;42623;49.978;9.966;2022-07-06T00:19:16;6.63;;;3.50;;
56746;SDS011;42623;49.978;9.966;2022-07-06T00:19:26;6.50;;;3.43;;
56746;SDS011;42623;49.978;9.966;2022-07-06T00:19:36;5.67;;;3.10;;
56746;SDS011;42623;49.978;9.966;2022-07-06T00:19:47;5.80;;;3.10;;
56746;SDS011;42623;49.978;9.966;2022-07-06T00:19:57;5.87;;;3.07;;
56746;SDS011;42623;49.978;9.966;2022-07-06T00:20:07;6.30;;;3.13;;
56746;SDS011;42623;49.978;9.966;2022-07-06T00:20:17;5.93;;;3.00;;
56746;SDS011;42623;49.978;9.966;2022-07-06T00:20:27;5.93;;;3.00;;
56746;SDS011;42623;49.978;9.966;2022-07-06T00:20:38;6.97;;;3.30;;
56746;SDS011;42623;49.978;9.966;2022-07-06T00:20:48;7.67;;;3.47;;
56746;SDS011;42623;49.978;9.966;2022-07-06T00:20:58;7.50;;;3.37;;
56746;SDS011;42623;49.978;9.966;2022-07-06T00:21:08;6.43;;;3.30;;
56746;SDS011;42623;49.978;9.966;2022-07-06T00:21:18;6.05;;;3.47;;
56746;SDS011;42623;49.978;9.966;2022-07-06T00:21:29;6.37;;;3.60;;
56746;SDS011;42623;49.978;9.966;2022-07-06T00:21:39;6.27;;;3.20;;
56746;SDS011;42623;49.978;9.966;2022-07-06T00:21:49;6.50;;;3.03;;
56746;SDS011;42623;49.978;9.966;2022-07-06T00:21:59;6.37;;;2.90;;
56746;SDS011;42623;49.978;9.966;2022-07-06T00:22:09;6.15;;;2.95;;
56746;SDS011;42623;49.978;9.966;2022-07-06T00:22:19;5.50;;;2.90;;
56746;SDS011;42623;49.978;9.966;2022-07-06T00:22:30;5.47;;;3.07;;
56746;SDS011;42623;49.978;9.966;2022-07-06T00:22:40;5.17;;;3.00;;
56746;SDS011;42623;49.978;9.966;2022-07-06T00:22:50;5.50;;;3.07;;
56746;SDS011;42623;49.978;9.966;2022-07-06T00:23:00;5.65;;;3.30;;
56746;SDS011;42623;49.978;9.966;2022-07-06T00:23:10;5.90;;;3.23;;
56746;SDS011;42623;49.978;9.966;2022-07-06T00:23:20;6.37;;;3.33;;
56746;SDS011;42623;49.978;9.966;2022-07-06T00:23:30;7.17;;;3.40;;
56746;SDS011;42623;49.978;9.966;2022-07-06T00:23:41;6.90;;;3.33;;
56746;SDS011;42623;49.978;9.966;2022-07-06T00:23:51;15.95;;;10.50;;
56746;SDS011;42623;49.978;9.966;2022-07-06T00:24:01;32.40;;;21.63;;
56746;SDS011;42623;49.978;9.966;2022-07-06T00:24:12;33.08;;;21.88;;
56746;SDS011;42623;49.978;9.966;2022-07-06T00:24:22;17.33;;;9.93;;
56746;SDS011;42623;49.978;9.966;2022-07-06T00:24:32;6.60;;;3.20;;
56746;SDS011;42623;49.978;9.966;2022-07-06T00:24:42;6.93;;;3.73;;
56746;SDS011;42623;49.978;9.966;2022-07-06T00:24:52;7.03;;;4.10;;
56746;SDS011;42623;49.978;9.966;2022-07-06T00:25:03;8.20;;;4.50;;
56746;SDS011;42623;49.978;9.966;2022-07-06T00:25:13;7.37;;;3.73;;
56746;SDS011;42623;49.978;9.966;2022-07-06T00:25:23;7.17;;;3.77;;
56746;SDS011;42623;49.978;9.966;2022-07-06T00:25:33;6.00;;;3.40;;
56746;SDS011;42623;49.978;9.966;2022-07-06T00:25:44;6.05;;;3.25;;
56746;SDS011;42623;49.978;9.966;2022-07-06T00:25:55;5.90;;;2.97;;
56746;SDS011;42623;49.978;9.966;2022-07-06T00:26:05;6.10;;;2.90;;
56746;SDS011;42623;49.978;9.966;2022-07-06T00:26:15;6.53;;;3.07;;
56746;SDS011;42623;49.978;9.966;2022-07-06T00:26:25;7.05;;;3.88;;
56746;SDS011;42623;49.978;9.966;2022-07-06T00:26:36;8.70;;;4.90;;
56746;SDS011;42623;49.978;9.966;2022-07-06T00:26:46;8.67;;;4.87;;
56746;SDS011;42623;49.978;9.966;2022-07-06T00:26:56;8.13;;;4.00;;
56746;SDS011;42623;49.978;9.966;2022-07-06T00:27:06;6.47;;;3.30;;
56746;SDS011;42623;49.978;9.966;2022-07-06T00:27:16;5.90;;;3.30;;
56746;SDS011;42623;49.978;9.966;2022-07-06T00:27:27;5.90;;;3.30;;
56746;SDS011;42623;49.978;9.966;2022-07-06T00:27:37;5.47;;;3.10;;
56746;SDS011;42623;49.978;9.966;2022-07-06T00:27:47;5.37;;;3.00;;
56746;SDS011;42623;49.978;9.966;2022-07-06T00:27:57;6.63;;;3.00;;
56746;SDS011;42623;49.978;9.966;2022-07-06T00:28:07;6.85;;;3.05;;
56746;SDS011;42623;49.978;9.966;2022-07-06T00:28:17;6.77;;;3.20;;
56746;SDS011;42623;49.978;9.966;2022-07-06T00:28:27;6.60;;;3.70;;
56746;SDS011;42623;49.978;9.966;2022-07-06T00:28:37;7.93;;;4.87;;
56746;SDS011;42623;49.978;9.966;2022-07-06T00:28:48;8.10;;;4.80;;
56746;SDS011;42623;49.978;9.966;2022-07-06T00:28:58;7.57;;;4.37;;
56746;SDS011;42623;49.978;9.966;2022-07-06T00:29:08;6.70;;;3.08;;
56746;SDS011;42623;49.978;9.966;2022-07-06T00:29:18;6.57;;;3.00;;
56746;SDS011;42623;49.978;9.966;2022-07-06T00:29:28;7.73;;;3.60;;
56746;SDS011;42623;49.978;9.966;2022-07-06T00:29:40;7.68;;;3.78;;
56746;SDS011;42623;49.978;9.966;2022-07-06T00:29:53;6.90;;;3.72;;
56746;SDS011;42623;49.978;9.966;2022-07-06T00:30:03;5.90;;;3.00;;
56746;SDS011;42623;49.978;9.966;2022-07-06T00:30:14;5.80;;;2.90;;
56746;SDS011;42623;49.978;9.966;2022-07-06T00:30:24;5.83;;;3.03;;
56746;SDS011;42623;49.978;9.966;2022-07-06T00:30:34;5.60;;;3.20;;
56746;SDS011;42623;49.978;9.966;2022-07-06T00:30:44;6.47;;;3.20;;
56746;SDS011;42623;49.978;9.966;2022-07-06T00:30:54;7.23;;;3.17;;
56746;SDS011;42623;49.978;9.966;2022-07-06T00:31:04;7.45;;;3.20;;
56746;SDS011;42623;49.978;9.966;2022-07-06T00:31:15;6.30;;;3.00;;
56746;SDS011;42623;49.978;9.966;2022-07-06T00:31:25;5.77;;;2.73;;
56746;SDS011;42623;49.978;9.966;2022-07-06T00:31:36;5.77;;;2.77;;
56746;SDS011;42623;49.978;9.966;2022-07-06T00:31:46;5.70;;;2.83;;
56746;SDS011;42623;49.978;9.966;2022-07-06T00:31:56;5.80;;;2.90;;
56746;SDS011;42623;49.978;9.966;2022-07-06T00:32:06;5.87;;;2.93;;
56746;SDS011;42623;49.978;9.966;2022-07-06T00:32:16;7.05;;;3.25;;
56746;SDS011;42623;49.978;9.966;2022-07-06T00:32:27;6.87;;;3.27;;
56746;SDS011;42623;49.978;9.966;2022-07-06T00:32:37;6.60;;;3.42;;
56746;SDS011;42623;49.978;9.966;2022-07-06T00:32:47;5.70;;;3.40;;
56746;SDS011;42623;49.978;9.966;2022-07-06T00:32:58;5.90;;;3.33;;
56746;SDS011;42623;49.978;9.966;2022-07-06T00:33:08;6.20;;;3.10;;
56746;SDS011;42623;49.978;9.966;2022-07-06T00:33:19;7.73;;;3.20;;
56746;SDS011;42623;49.978;9.966;2022-07-06T00:33:29;7.83;;;3.27;;
56746;SDS011;42623;49.978;9.966;2022-07-06T00:33:39;7.37;;;3.23;;
56746;SDS011;42623;49.978;9.966;2022-07-06T00:33:49;6.38;;;3.08;;
56746;SDS011;42623;49.978;9.966;2022-07-06T00:33:59;6.60;;;2.93;;
56746;SDS011;42623;49.978;9.966;2022-07-06T00:34:09;6.97;;;3.00;;
56746;SDS011;42623;49.978;9.966;2022-07-06T00:34:19;6.50;;;3.00;;
56746;SDS011;42623;49.978;9.966;2022-07-06T00:34:30;6.20;;;3.00;;
56746;SDS011;42623;49.978;9.966;2022-07-06T00:34:40;6.57;;;3.07;;
56746;SDS011;42623;49.978;9.966;2022-07-06T00:34:50;6.60;;;3.13;;
56746;SDS011;42623;49.978;9.966;2022-07-06T00:35:00;6.87;;;3.30;;
56746;SDS011;42623;49.978;9.966;2022-07-06T00:35:10;6.07;;;3.27;;
56746;SDS011;42623;49.978;9.966;2022-07-06T00:35:20;6.33;;;3.40;;
56746;SDS011;42623;49.978;9.966;2022-07-06T00:35:31;6.00;;;3.20;;
56746;SDS011;42623;49.978;9.966;2022-07-06T00:35:41;5.93;;;3.03;;
56746;SDS011;42623;49.978;9.966;2022-07-06T00:35:51;5.57;;;2.90;;
56746;SDS011;42623;49.978;9.966;2022-07-06T00:36:01;6.00;;;2.90;;
56746;SDS011;42623;49.978;9.966;2022-07-06T00:36:12;5.95;;;2.85;;
56746;SDS011;42623;49.978;9.966;2022-07-06T00:36:22;5.53;;;2.60;;
56746;SDS011;42623;49.978;9.966;2022-07-06T00:36:32;5.57;;;2.93;;
56746;SDS011;42623;49.978;9.966;2022-07-06T00:36:42;5.87;;;3.17;;
56746;SDS011;42623;49.978;9.966;2022-07-06T00:36:52;6.40;;;3.30;;
56746;SDS011;42623;49.978;9.966;2022-07-06T00:37:03;6.13;;;3.30;;
56746;SDS011;42623;49.978;9.966;2022-07-06T00:37:13;6.20;;;3.30;;
56746;SDS011;42623;49.978;9.966;2022-07-06T00:37:25;6.07;;;3.25;;
56746;SDS011;42623;49.978;9.966;2022-07-06T00:37:35;6.13;;;3.20;;
56746;SDS011;42623;49.978;9.966;2022-07-06T00:37:45;6.30;;;3.00;;
56746;SDS011;42623;49.978;9.966;2022-07-06T00:37:55;6.33;;;3.10;;
56746;SDS011;42623;49.978;9.966;2022-07-06T00:38:05;6.20;;;3.17;;
56746;SDS011;42623;49.978;9.966;2022-07-06T00:38:15;6.83;;;3.53;;
56746;SDS011;42623;49.978;9.966;2022-07-06T00:38:26;6.97;;;3.37;;
56746;SDS011;42623;49.978;9.966;2022-07-06T00:38:36;6.93;;;3.23;;
56746;SDS011;42623;49.978;9.966;2022-07-06T00:38:46;5.77;;;2.87;;
56746;SDS011;42623;49.978;9.966;2022-07-06T00:38:56;5.97;;;2.80;;
56746;SDS011;42623;49.978;9.966;2022-07-06T00:39:06;6.23;;;2.90;;
56746;SDS011;42623;49.978;9.966;2022-07-06T00:39:17;7.13;;;3.00;;
56746;SDS011;42623;49.978;9.966;2022-07-06T00:39:29;6.95;;;3.08;;
56746;SDS011;42623;49.978;9.966;2022-07-06T00:39:39;6.10;;;3.03;;
56746;SDS011;42623;49.978;9.966;2022-07-06T00:39:50;5.70;;;2.90;;
56746;SDS011;42623;49.978;9.966;2022-07-06T00:40:00;6.83;;;3.10;;
56746;SDS011;42623;49.978;9.966;2022-07-06T00:40:10;8.07;;;3.00;;
56746;SDS011;42623;49.978;9.966;2022-07-06T00:40:20;8.43;;;3.10;;
56746;SDS011;42623;49.978;9.966;2022-07-06T00:40:30;6.80;;;3.10;;
56746;SDS011;42623;49.978;9.966;2022-07-06T00:40:41;6.20;;;3.30;;
56746;SDS011;42623;49.978;9.966;2022-07-06T00:40:51;6.32;;;3.70;;
56746;SDS011;42623;49.978;9.966;2022-07-06T00:41:01;5.90;;;3.60;;
56746;SDS011;42623;49.978;9.966;2022-07-06T00:41:12;6.57;;;3.70;;
56746;SDS011;42623;49.978;9.966;2022-07-06T00:41:23;6.65;;;3.50;;
56746;SDS011;42623;49.978;9.966;2022-07-06T00:41:33;6.82;;;3.55;;
56746;SDS011;42623;49.978;9.966;2022-07-06T00:41:43;6.20;;;3.27;;
56746;SDS011;42623;49.978;9.966;2022-07-06T00:41:53;6.20;;;3.10;;
56746;SDS011;42623;49.978;9.966;2022-07-06T00:42:03;6.30;;;3.10;;
56746;SDS011;42623;49.978;9.966;2022-07-06T00:42:13;6.27;;;3.20;;
56746;SDS011;42623;49.978;9.966;2022-07-06T00:42:23;6.20;;;3.30;;
56746;SDS011;42623;49.978;9.966;2022-07-06T00:42:44;6.30;;;3.60;;
56746;SDS011;42623;49.978;9.966;2022-07-06T00:42:54;6.15;;;3.45;;
56746;SDS011;42623;49.978;9.966;2022-07-06T00:43:04;5.95;;;3.13;;
56746;SDS011;42623;49.978;9.966;2022-07-06T00:43:15;5.97;;;3.17;;
56746;SDS011;42623;49.978;9.966;2022-07-06T00:43:25;6.23;;;3.13;;
56746;SDS011;42623;49.978;9.966;2022-07-06T00:43:48;6.23;;;3.20;;
56746;SDS011;42623;49.978;9.966;2022-07-06T00:43:58;6.97;;;3.13;;
56746;SDS011;42623;49.978;9.966;2022-07-06T00:44:08;7.68;;;3.20;;
56746;SDS011;42623;49.978;9.966;2022-07-06T00:44:19;7.57;;;3.17;;
56746;SDS011;42623;49.978;9.966;2022-07-06T00:44:29;6.57;;;3.07;;
56746;SDS011;42623;49.978;9.966;2022-07-06T00:44:42;6.07;;;3.00;;
56746;SDS011;42623;49.978;9.966;2022-07-06T00:44:52;6.13;;;2.90;;
56746;SDS011;42623;49.978;9.966;2022-07-06T00:45:02;6.07;;;2.88;;
56746;SDS011;42623;49.978;9.966;2022-07-06T00:45:13;5.73;;;2.90;;
56746;SDS011;42623;49.978;9.966;2022-07-06T00:45:23;5.63;;;2.80;;
56746;SDS011;42623;49.978;9.966;2022-07-06T00:45:33;5.67;;;2.93;;
56746;SDS011;42623;49.978;9.966;2022-07-06T00:45:44;5.17;;;2.80;;
56746;SDS011;42623;49.978;9.966;2022-07-06T00:45:54;5.28;;;2.90;;
56746;SDS011;42623;49.978;9.966;2022-07-06T00:46:04;5.93;;;3.17;;
56746;SDS011;42623;49.978;9.966;2022-07-06T00:46:14;6.30;;;3.23;;
56746;SDS011;42623;49.978;9.966;2022-07-06T00:46:27;6.57;;;3.43;;
56746;SDS011;42623;49.978;9.966;2022-07-06T00:46:37;5.95;;;3.17;;
56746;SDS011;42623;49.978;9.966;2022-07-06T00:46:47;6.00;;;3.27;;
56746;SDS011;42623;49.978;9.966;2022-07-06T00:46:57;5.63;;;3.13;;
56746;SDS011;42623;49.978;9.966;2022-07-06T00:47:08;6.25;;;3.30;;
56746;SDS011;42623;49.978;9.966;2022-07-06T00:47:18;6.63;;;3.27;;
56746;SDS011;42623;49.978;9.966;2022-07-06T00:47:28;7.07;;;3.40;;
56746;SDS011;42623;49.978;9.966;2022-07-06T00:47:38;6.70;;;3.27;;
56746;SDS011;42623;49.978;9.966;2022-07-06T00:47:49;6.53;;;3.55;;
56746;SDS011;42623;49.978;9.966;2022-07-06T00:47:59;6.80;;;3.53;;
56746;SDS011;42623;49.978;9.966;2022-07-06T00:48:09;7.28;;;3.50;;
56746;SDS011;42623;49.978;9.966;2022-07-06T00:48:20;7.30;;;3.33;;
56746;SDS011;42623;49.978;9.966;2022-07-06T00:48:30;6.93;;;3.33;;
56746;SDS011;42623;49.978;9.966;2022-07-06T00:48:40;6.20;;;3.20;;
56746;SDS011;42623;49.978;9.966;2022-07-06T00:48:50;6.20;;;3.13;;
56746;SDS011;42623;49.978;9.966;2022-07-06T00:49:00;6.40;;;3.00;;
56746;SDS011;42623;49.978;9.966;2022-07-06T00:49:10;6.33;;;2.90;;
56746;SDS011;42623;49.978;9.966;2022-07-06T00:49:40;5.82;;;3.20;;
56746;SDS011;42623;49.978;9.966;2022-07-06T00:50:10;6.63;;;3.45;;
56746;SDS011;42623;49.978;9.966;2022-07-06T00:50:24;6.53;;;3.60;;
56746;SDS011;42623;49.978;9.966;2022-07-06T00:50:35;6.10;;;3.47;;
56746;SDS011;42623;49.978;9.966;2022-07-06T00:50:45;5.88;;;3.22;;
56746;SDS011;42623;49.978;9.966;2022-07-06T00:50:55;6.20;;;3.47;;
56746;SDS011;42623;49.978;9.966;2022-07-06T00:51:05;6.27;;;3.33;;
56746;SDS011;42623;49.978;9.966;2022-07-06T00:51:16;6.87;;;3.40;;
56746;SDS011;42623;49.978;9.966;2022-07-06T00:51:29;6.60;;;3.20;;
56746;SDS011;42623;49.978;9.966;2022-07-06T00:51:40;6.22;;;3.25;;
56746;SDS011;42623;49.978;9.966;2022-07-06T00:51:50;6.00;;;3.23;;
56746;SDS011;42623;49.978;9.966;2022-07-06T00:52:01;6.13;;;3.40;;
56746;SDS011;42623;49.978;9.966;2022-07-06T00:52:11;6.13;;;3.30;;
56746;SDS011;42623;49.978;9.966;2022-07-06T00:52:21;5.90;;;3.17;;
56746;SDS011;42623;49.978;9.966;2022-07-06T00:52:32;6.05;;;3.13;;
56746;SDS011;42623;49.978;9.966;2022-07-06T00:52:43;6.10;;;3.20;;
56746;SDS011;42623;49.978;9.966;2022-07-06T00:52:54;6.53;;;3.28;;
56746;SDS011;42623;49.978;9.966;2022-07-06T00:53:06;6.53;;;3.42;;
56746;SDS011;42623;49.978;9.966;2022-07-06T00:53:17;6.47;;;3.40;;
56746;SDS011;42623;49.978;9.966;2022-07-06T00:53:27;5.77;;;3.30;;
56746;SDS011;42623;49.978;9.966;2022-07-06T00:53:37;6.10;;;3.20;;
56746;SDS011;42623;49.978;9.966;2022-07-06T00:53:47;6.18;;;3.22;;
56746;SDS011;42623;49.978;9.966;2022-07-06T00:54:00;6.30;;;3.20;;
56746;SDS011;42623;49.978;9.966;2022-07-06T00:54:12;5.68;;;3.13;;
56746;SDS011;42623;49.978;9.966;2022-07-06T00:54:22;5.50;;;3.03;;
56746;SDS011;42623;49.978;9.966;2022-07-06T00:54:32;5.77;;;3.10;;
56746;SDS011;42623;49.978;9.966;2022-07-06T00:54:42;6.53;;;3.30;;
56746;SDS011;42623;49.978;9.966;2022-07-06T00:54:53;6.53;;;3.27;;
56746;SDS011;42623;49.978;9.966;2022-07-06T00:55:03;6.63;;;3.63;;
56746;SDS011;42623;49.978;9.966;2022-07-06T00:55:14;6.00;;;3.50;;
56746;SDS011;42623;49.978;9.966;2022-07-06T00:55:26;6.03;;;3.47;;
56746;SDS011;42623;49.978;9.966;2022-07-06T00:55:37;5.75;;;2.90;;
56746;SDS011;42623;49.978;9.966;2022-07-06T00:55:51;7.30;;;3.25;;
56746;SDS011;42623;49.978;9.966;2022-07-06T00:56:01;7.15;;;3.40;;
56746;SDS011;42623;49.978;9.966;2022-07-06T00:56:11;7.50;;;3.60;;
56746;SDS011;42623;49.978;9.966;2022-07-06T00:56:21;6.40;;;3.53;;
56746;SDS011;42623;49.978;9.966;2022-07-06T00:56:32;7.43;;;3.67;;
56746;SDS011;42623;49.978;9.966;2022-07-06T00:56:42;7.40;;;3.47;;
56746;SDS011;42623;49.978;9.966;2022-07-06T00:56:52;7.33;;;3.33;;
56746;SDS011;42623;49.978;9.966;2022-07-06T00:57:03;5.85;;;3.13;;
56746;SDS011;42623;49.978;9.966;2022-07-06T00:57:13;5.47;;;3.10;;
56746;SDS011;42623;49.978;9.966;2022-07-06T00:57:24;5.53;;;3.08;;
56746;SDS011;42623;49.978;9.966;2022-07-06T00:57:34;5.93;;;3.40;;
56746;SDS011;42623;49.978;9.966;2022-07-06T00:57:45;5.83;;;3.30;;
56746;SDS011;42623;49.978;9.966;2022-07-06T00:57:56;5.68;;;3.25;;
56746;SDS011;42623;49.978;9.966;2022-07-06T00:58:07;5.43;;;2.97;;
56746;SDS011;42623;49.978;9.966;2022-07-06T00:58:17;5.57;;;3.05;;
56746;SDS011;42623;49.978;9.966;2022-07-06T00:58:27;6.15;;;3.40;;
56746;SDS011;42623;49.978;9.966;2022-07-06T00:58:38;6.17;;;3.40;;
56746;SDS011;42623;49.978;9.966;2022-07-06T00:58:48;5.93;;;3.28;;
56746;SDS011;42623;49.978;9.966;2022-07-06T00:59:02;5.83;;;3.17;;
56746;SDS011;42623;49.978;9.966;2022-07-06T00:59:12;5.68;;;3.00;;
56746;SDS011;42623;49.978;9.966;2022-07-06T00:59:23;5.83;;;3.20;;
56746;SDS011;42623;49.978;9.966;2022-07-06T00:59:33;5.95;;;3.22;;
56746;SDS011;42623;49.978;9.966;2022-07-06T00:59:43;6.32;;;3.40;;
56746;SDS011;42623;49.978;9.966;2022-07-06T00:59:53;6.23;;;3.30;;
56746;SDS011;42623;49.978;9.966;2022-07-06T01:00:04;6.70;;;3.30;;
56746;SDS011;42623;49.978;9.966;2022-07-06T01:00:16;6.47;;;3.33;;
56746;SDS011;42623;49.978;9.966;2022-07-06T01:00:27;6.70;;;3.42;;
56746;SDS011;42623;49.978;9.966;2022-07-06T01:00:37;6.65;;;3.20;;
56746;SDS011;42623;49.978;9.966;2022-07-06T01:00:48;7.03;;;3.20;;
56746;SDS011;42623;49.978;9.966;2022-07-06T01:00:58;7.40;;;3.20;;
56746;SDS011;42623;49.978;9.966;2022-07-06T01:01:08;6.57;;;3.30;;
56746;SDS011;42623;49.978;9.966;2022-07-06T01:01:19;6.40;;;3.17;;
56746;SDS011;42623;49.978;9.966;2022-07-06T01:01:29;6.65;;;3.40;;
56746;SDS011;42623;49.978;9.966;2022-07-06T01:01:39;6.93;;;3.40;;
56746;SDS011;42623;49.978;9.966;2022-07-06T01:01:49;6.93;;;3.40;;
56746;SDS011;42623;49.978;9.966;2022-07-06T01:01:59;6.20;;;3.20;;
56746;SDS011;42623;49.978;9.966;2022-07-06T01:02:10;5.83;;;3.30;;
56746;SDS011;42623;49.978;9.966;2022-07-06T01:02:20;5.70;;;3.40;;
56746;SDS011;42623;49.978;9.966;2022-07-06T01:02:32;6.32;;;3.40;;
56746;SDS011;42623;49.978;9.966;2022-07-06T01:02:43;6.55;;;3.30;;
56746;SDS011;42623;49.978;9.966;2022-07-06T01:02:53;6.57;;;3.40;;
56746;SDS011;42623;49.978;9.966;2022-07-06T01:03:04;6.10;;;3.47;;
56746;SDS011;42623;49.978;9.966;2022-07-06T01:03:14;5.87;;;3.63;;
56746;SDS011;42623;49.978;9.966;2022-07-06T01:03:24;6.00;;;3.57;;